Time;durP1;ratioP1;P1;durP2;ratioP2;P2;SDS_P1;SDS_P2;PMS_P1;PMS_P2;Temp;Humidity;BMP_temperature;BMP_pressure;BME280_temperature;BME280_humidity;BME280_pressure;Samples;Min_cycle;Max_cycle;Signal;HPM_P1;HPM_P2
2021/12/04 00:00:16;;;;;;;33.38;16.80;;;7.10;99.90;;;;;;5038656;28;20469;-73
2021/12/04 00:02:42;;;;;;;31.48;17.52;;;7.20;99.90;;;;;;5044985;28;20032;-73
2021/12/04 00:05:08;;;;;;;30.27;16.00;;;7.20;99.90;;;;;;5039849;28;20453;-73
2021/12/04 00:07:36;;;;;;;32.70;16.33;;;7.20;99.90;;;;;;5045931;28;20037;-73
2021/12/04 00:10:03;;;;;;;31.30;16.27;;;7.20;99.90;;;;;;5044777;28;20037;-74
2021/12/04 00:12:31;;;;;;;33.03;17.02;;;7.20;99.60;;;;;;5044995;28;20514;-73
2021/12/04 00:14:57;;;;;;;29.80;16.30;;;7.10;99.50;;;;;;5046421;28;20028;-73
2021/12/04 00:17:23;;;;;;;31.50;16.77;;;7.10;99.60;;;;;;5047977;28;20033;-73
2021/12/04 00:19:48;;;;;;;30.05;16.73;;;7.10;99.30;;;;;;5043778;28;20032;-73
2021/12/04 00:22:14;;;;;;;29.23;15.85;;;7.10;99.90;;;;;;5050445;28;20033;-73
2021/12/04 00:24:40;;;;;;;30.38;16.73;;;7.10;99.90;;;;;;5044865;28;20560;-74
2021/12/04 00:27:06;;;;;;;31.13;16.98;;;7.00;99.90;;;;;;5046042;28;20033;-73
2021/12/04 00:29:32;;;;;;;28.15;16.42;;;7.10;99.90;;;;;;5047202;28;20082;-73
2021/12/04 00:32:11;;;;;;;35.85;17.70;;;7.10;99.70;;;;;;5045365;28;20033;-73
2021/12/04 00:34:41;;;;;;;28.85;15.65;;;7.10;99.90;;;;;;5040601;28;20056;-73
2021/12/04 00:50:33;;;;;;;30.88;17.33;;;7.10;99.90;;;;;;5037873;28;20571;-73
2021/12/04 00:52:59;;;;;;;29.40;16.67;;;7.10;99.90;;;;;;5042352;28;20021;-73
2021/12/04 00:55:25;;;;;;;28.58;15.85;;;7.10;99.90;;;;;;5041816;28;20037;-74
2021/12/04 00:57:52;;;;;;;28.33;16.42;;;7.10;99.90;;;;;;5037488;28;20033;-74
2021/12/04 01:00:19;;;;;;;28.85;15.02;;;7.10;99.90;;;;;;5037586;28;20068;-73
2021/12/04 01:02:44;;;;;;;26.75;13.70;;;7.10;99.90;;;;;;5038901;28;20020;-73
2021/12/04 01:05:10;;;;;;;27.17;15.50;;;7.00;99.90;;;;;;5041884;28;20025;-73
2021/12/04 01:07:36;;;;;;;24.98;12.27;;;7.00;99.90;;;;;;5042182;28;20063;-73
2021/12/04 01:10:05;;;;;;;22.65;11.35;;;7.10;99.90;;;;;;5038591;28;20037;-73
2021/12/04 01:12:30;;;;;;;19.85;10.50;;;7.10;99.90;;;;;;5037406;28;20082;-73
2021/12/04 01:14:56;;;;;;;19.35;10.45;;;7.20;99.40;;;;;;5047968;28;20036;-73
2021/12/04 01:17:22;;;;;;;18.33;9.55;;;7.20;99.10;;;;;;5040983;28;20106;-73
2021/12/04 01:19:47;;;;;;;17.52;9.27;;;7.30;99.10;;;;;;5045072;28;20386;-73
2021/12/04 01:22:13;;;;;;;20.00;8.80;;;7.30;98.50;;;;;;5042624;28;20037;-73
2021/12/04 01:24:39;;;;;;;13.93;8.25;;;7.20;98.50;;;;;;5039604;28;20112;-73
2021/12/04 01:27:04;;;;;;;17.25;9.20;;;7.20;98.60;;;;;;5037145;28;20583;-73
2021/12/04 01:29:30;;;;;;;18.00;8.63;;;7.20;98.50;;;;;;5040080;28;20049;-73
2021/12/04 01:31:56;;;;;;;20.48;9.05;;;7.20;98.10;;;;;;5044740;28;20026;-73
2021/12/04 01:34:21;;;;;;;20.45;9.05;;;7.20;98.00;;;;;;5043735;28;20040;-73
2021/12/04 01:36:47;;;;;;;15.38;9.52;;;7.30;97.90;;;;;;5039795;28;20037;-73
2021/12/04 01:39:13;;;;;;;17.45;7.88;;;7.20;97.80;;;;;;5039718;28;20029;-73
2021/12/04 01:41:38;;;;;;;16.73;8.45;;;7.30;98.30;;;;;;5040152;28;20037;-73
2021/12/04 01:44:06;;;;;;;21.25;10.38;;;7.30;98.70;;;;;;5042951;28;20108;-73
2021/12/04 01:46:32;;;;;;;21.65;12.23;;;7.20;98.90;;;;;;5047859;28;20028;-73
2021/12/04 01:48:58;;;;;;;23.75;13.52;;;7.20;99.90;;;;;;5040799;28;20078;-73
2021/12/04 01:51:24;;;;;;;21.75;11.82;;;7.10;99.90;;;;;;5047635;28;20033;-73
2021/12/04 01:53:50;;;;;;;22.40;12.30;;;7.00;99.90;;;;;;5047834;28;20029;-73
2021/12/04 01:56:17;;;;;;;20.83;12.10;;;6.90;99.90;;;;;;5042382;28;20030;-73
2021/12/04 01:58:43;;;;;;;10.68;7.00;;;7.00;99.90;;;;;;5046079;28;20123;-73
2021/12/04 02:01:09;;;;;;;10.90;5.95;;;7.00;99.20;;;;;;5047261;28;20029;-74
2021/12/04 02:03:35;;;;;;;10.32;6.05;;;6.90;98.70;;;;;;5044933;28;20029;-74
2021/12/04 02:06:01;;;;;;;18.30;9.65;;;7.00;98.80;;;;;;5031823;28;20037;-74
2021/12/04 02:08:27;;;;;;;15.10;8.35;;;7.00;99.60;;;;;;5049653;28;20021;-73
2021/12/04 02:10:55;;;;;;;14.20;7.32;;;7.00;99.30;;;;;;5049763;28;20056;-74
2021/12/04 02:13:22;;;;;;;14.32;7.50;;;6.90;99.10;;;;;;5050759;28;20021;-73
2021/12/04 02:15:48;;;;;;;12.15;6.93;;;7.00;99.90;;;;;;5049602;28;20037;-73
2021/12/04 02:18:15;;;;;;;11.48;6.97;;;7.00;99.50;;;;;;5050761;28;20021;-73
2021/12/04 02:20:41;;;;;;;14.30;7.43;;;6.90;99.60;;;;;;5050463;28;20021;-74
2021/12/04 02:23:08;;;;;;;14.52;7.93;;;6.90;99.60;;;;;;5050764;28;20409;-73
2021/12/04 02:25:34;;;;;;;13.00;7.32;;;7.00;99.80;;;;;;5049946;28;20040;-73
2021/12/04 02:28:01;;;;;;;15.00;7.28;;;6.90;99.50;;;;;;5050491;28;20021;-74
2021/12/04 02:30:30;;;;;;;13.88;7.50;;;7.00;99.40;;;;;;5050304;28;20025;-73
2021/12/04 02:32:57;;;;;;;16.50;7.82;;;7.00;99.60;;;;;;5050003;28;20036;-73
2021/12/04 02:35:25;;;;;;;14.18;8.07;;;6.90;99.90;;;;;;5044610;28;20095;-73
2021/12/04 02:37:52;;;;;;;13.63;8.05;;;6.90;99.90;;;;;;5049703;28;20021;-73
2021/12/04 02:40:21;;;;;;;15.95;8.52;;;6.70;99.90;;;;;;5049930;28;20037;-73
2021/12/04 02:42:47;;;;;;;14.57;7.43;;;6.70;99.90;;;;;;5036879;28;20059;-74
2021/12/04 02:45:14;;;;;;;13.88;7.45;;;6.80;99.90;;;;;;5054032;28;20040;-73
2021/12/04 02:47:43;;;;;;;16.20;7.78;;;6.80;99.90;;;;;;5054077;28;20021;-74
2021/12/04 02:50:11;;;;;;;15.20;8.00;;;6.80;99.90;;;;;;5054062;28;20493;-74
2021/12/04 02:52:38;;;;;;;17.35;7.60;;;6.80;99.90;;;;;;5053684;28;20025;-74
2021/12/04 02:55:05;;;;;;;16.13;7.65;;;6.90;99.90;;;;;;5053312;28;20497;-73
2021/12/04 02:57:33;;;;;;;15.10;7.88;;;6.80;99.90;;;;;;5053697;28;20013;-73
2021/12/04 02:59:58;;;;;;;14.95;8.80;;;6.80;99.90;;;;;;5052611;28;20029;-74
2021/12/04 03:02:25;;;;;;;15.07;9.10;;;6.90;99.90;;;;;;5054090;28;20021;-73
2021/12/04 03:04:53;;;;;;;20.48;11.43;;;6.80;99.90;;;;;;5053258;28;20056;-74
2021/12/04 03:07:21;;;;;;;21.50;10.90;;;6.80;99.90;;;;;;5053384;28;20066;-73
2021/12/04 03:09:47;;;;;;;23.17;11.52;;;6.70;99.90;;;;;;5053391;28;20021;-73
2021/12/04 03:12:15;;;;;;;21.60;12.30;;;6.70;99.90;;;;;;5053274;28;20103;-74
2021/12/04 03:14:41;;;;;;;22.45;12.68;;;6.60;99.90;;;;;;5035204;28;20508;-73
2021/12/04 03:17:07;;;;;;;21.40;12.48;;;6.50;99.90;;;;;;5053568;28;20108;-74
2021/12/04 03:19:34;;;;;;;18.52;11.43;;;6.50;99.90;;;;;;5053492;28;20040;-73
2021/12/04 03:22:02;;;;;;;19.30;12.18;;;6.60;99.90;;;;;;5052980;28;20056;-73
2021/12/04 03:24:30;;;;;;;20.50;12.13;;;6.50;99.90;;;;;;5053068;28;20041;-74
2021/12/04 03:26:56;;;;;;;21.60;12.45;;;6.40;99.90;;;;;;5052883;28;20017;-74
2021/12/04 03:29:25;;;;;;;26.58;12.95;;;6.40;99.90;;;;;;5053515;28;20113;-73
2021/12/04 03:42:29;;;;;;;23.77;11.10;;;6.40;99.90;;;;;;5052807;28;20450;-74
2021/12/04 03:44:55;;;;;;;22.95;12.32;;;6.40;99.90;;;;;;5052517;28;20033;-74
2021/12/04 03:47:21;;;;;;;21.98;11.98;;;6.40;99.90;;;;;;5052916;28;20142;-73
2021/12/04 03:49:49;;;;;;;23.27;11.85;;;6.40;99.90;;;;;;5052568;28;20028;-73
2021/12/04 03:52:15;;;;;;;20.55;11.13;;;6.40;99.90;;;;;;5046900;28;20029;-74
2021/12/04 03:54:41;;;;;;;19.98;12.20;;;6.40;99.90;;;;;;5051545;28;20505;-73
2021/12/04 03:57:10;;;;;;;21.38;11.07;;;6.30;99.90;;;;;;5052251;28;20092;-73
2021/12/04 03:59:39;;;;;;;24.98;11.98;;;6.30;99.90;;;;;;5052640;28;20025;-73
2021/12/04 04:02:08;;;;;;;20.88;11.50;;;6.30;99.90;;;;;;5052188;28;20017;-73
2021/12/04 04:04:34;;;;;;;25.80;13.10;;;6.40;99.90;;;;;;5052056;28;20036;-73
2021/12/04 04:07:00;;;;;;;25.88;16.20;;;6.40;99.90;;;;;;5051819;28;20086;-73
2021/12/04 04:09:27;;;;;;;22.33;12.93;;;6.30;99.90;;;;;;5052712;28;20449;-73
2021/12/04 04:11:53;;;;;;;26.85;16.50;;;6.20;99.90;;;;;;5051855;28;20112;-74
2021/12/04 04:14:18;;;;;;;22.85;14.13;;;6.20;99.90;;;;;;5052670;28;20059;-73
2021/12/04 04:16:44;;;;;;;27.88;16.48;;;6.20;99.90;;;;;;5052468;28;20057;-74
2021/12/04 04:19:10;;;;;;;24.42;14.63;;;6.20;99.90;;;;;;5051715;28;20505;-74
2021/12/04 04:21:39;;;;;;;25.90;16.08;;;6.30;99.90;;;;;;5051532;28;20029;-74
2021/12/04 04:24:26;;;;;;;23.70;15.25;;;6.20;99.90;;;;;;5052122;28;20096;-73
2021/12/04 04:26:53;;;;;;;25.73;16.88;;;6.10;99.90;;;;;;5051693;28;20040;-74
2021/12/04 04:29:18;;;;;;;26.38;16.52;;;6.00;99.90;;;;;;5044041;28;20044;-74
2021/12/04 04:31:48;;;;;;;28.65;16.30;;;6.00;99.90;;;;;;5051818;28;20029;-74
2021/12/04 04:34:24;;;;;;;29.58;17.63;;;6.00;99.90;;;;;;5051442;28;20021;-74
2021/12/04 04:37:18;;;;;;;37.03;19.35;;;5.90;99.90;;;;;;5051174;28;20029;-74
2021/12/04 04:59:16;;;;;;;30.65;17.65;;;5.90;99.90;;;;;;4998220;28;20278;-73
2021/12/04 05:12:53;;;;;;;31.25;16.02;;;5.80;99.90;;;;;;4928610;29;20049;-73
2021/12/04 05:15:57;;;;;;;26.55;15.32;;;5.80;99.90;;;;;;4927400;29;20032;-73
2021/12/04 05:21:06;;;;;;;25.40;15.27;;;5.80;99.90;;;;;;4970131;28;20039;-74
2021/12/04 05:23:39;;;;;;;29.88;16.08;;;5.90;99.90;;;;;;4970531;28;20061;-73
2021/12/04 05:26:07;;;;;;;31.83;16.83;;;5.70;99.90;;;;;;4969672;28;20519;-74
2021/12/04 05:28:34;;;;;;;31.48;16.73;;;5.70;99.90;;;;;;4969715;28;20484;-73
2021/12/04 05:31:00;;;;;;;30.88;16.33;;;5.70;99.90;;;;;;4969970;28;20041;-74
2021/12/04 05:33:26;;;;;;;30.77;15.75;;;5.70;99.90;;;;;;4969491;28;20158;-74
2021/12/04 05:35:52;;;;;;;24.08;14.63;;;5.70;99.90;;;;;;4953429;28;20479;-74
2021/12/04 05:38:19;;;;;;;31.13;16.95;;;5.70;99.90;;;;;;4970906;28;20512;-74
2021/12/04 05:40:46;;;;;;;33.30;16.83;;;5.70;99.90;;;;;;4969376;28;20055;-74
2021/12/04 05:43:12;;;;;;;24.52;14.75;;;5.70;99.90;;;;;;4969764;28;20031;-73
2021/12/04 05:45:43;;;;;;;26.20;15.60;;;5.60;99.90;;;;;;5009171;28;20037;-74
2021/12/04 05:48:13;;;;;;;24.25;13.70;;;5.60;99.90;;;;;;5050553;28;20493;-73
2021/12/04 05:53:23;;;;;;;23.13;14.02;;;5.50;99.90;;;;;;5050940;28;20025;-74
2021/12/04 05:55:53;;;;;;;25.85;14.55;;;5.40;99.90;;;;;;5050758;28;20087;-74
2021/12/04 05:58:33;;;;;;;27.70;15.45;;;5.30;99.90;;;;;;5050442;28;20033;-72
2021/12/04 06:01:03;;;;;;;31.42;15.48;;;5.40;99.90;;;;;;5050731;28;20557;-73
2021/12/04 06:03:29;;;;;;;24.83;13.18;;;5.30;99.90;;;;;;5050263;28;20486;-73
2021/12/04 06:05:56;;;;;;;27.70;15.07;;;5.30;99.90;;;;;;5050530;28;20021;-73
2021/12/04 06:08:21;;;;;;;30.17;15.50;;;5.40;99.90;;;;;;5024919;28;20634;-73
2021/12/04 06:10:49;;;;;;;25.40;14.32;;;5.50;99.90;;;;;;5050667;28;20052;-73
2021/12/04 06:13:15;;;;;;;26.48;13.30;;;5.40;99.90;;;;;;5050330;28;20037;-74
2021/12/04 06:15:41;;;;;;;24.38;12.85;;;5.40;99.90;;;;;;5050450;28;20120;-74
2021/12/04 06:18:08;;;;;;;27.38;13.18;;;5.40;99.90;;;;;;5052248;28;20104;-74
2021/12/04 06:23:20;;;;;;;22.02;11.93;;;5.50;99.90;;;;;;5054409;28;20567;-73
2021/12/04 06:25:46;;;;;;;21.35;12.38;;;5.60;99.90;;;;;;5054206;28;20025;-73
2021/12/04 06:28:12;;;;;;;20.20;11.45;;;5.60;99.90;;;;;;5054252;28;20040;-74
2021/12/04 06:30:39;;;;;;;19.17;10.68;;;5.70;99.90;;;;;;5054016;28;20021;-73
2021/12/04 06:33:07;;;;;;;24.08;11.60;;;5.80;99.90;;;;;;5054069;28;20041;-73
2021/12/04 06:35:36;;;;;;;21.20;10.85;;;5.90;99.90;;;;;;5053815;28;20509;-74
2021/12/04 06:38:03;;;;;;;20.25;11.75;;;6.00;99.90;;;;;;5053200;28;20064;-74
2021/12/04 06:40:28;;;;;;;18.80;10.95;;;6.00;99.90;;;;;;5054058;28;20051;-74
2021/12/04 06:42:56;;;;;;;14.98;8.93;;;6.00;99.90;;;;;;5053710;28;20020;-73
2021/12/04 06:45:23;;;;;;;16.23;9.57;;;6.00;99.90;;;;;;5053499;28;20021;-73
2021/12/04 06:47:56;;;;;;;18.58;10.75;;;6.10;99.90;;;;;;5053814;28;20067;-73
2021/12/04 06:50:33;;;;;;;20.02;10.88;;;6.10;99.90;;;;;;5054345;28;20379;-73
2021/12/04 06:53:05;;;;;;;20.25;10.90;;;6.20;99.90;;;;;;5054038;28;20040;-74
2021/12/04 06:55:37;;;;;;;26.15;15.38;;;6.20;99.90;;;;;;5053357;28;20044;-74
2021/12/04 06:58:03;;;;;;;35.53;18.75;;;6.20;99.90;;;;;;5053368;28;20025;-74
2021/12/04 07:00:30;;;;;;;25.10;14.40;;;6.20;99.90;;;;;;5045090;28;20029;-74
2021/12/04 07:02:56;;;;;;;22.10;12.32;;;6.20;99.90;;;;;;5053434;28;20033;-74
2021/12/04 07:05:22;;;;;;;17.67;11.32;;;6.30;99.90;;;;;;5053862;28;20405;-73
2021/12/04 07:07:48;;;;;;;21.02;11.38;;;6.20;99.90;;;;;;5053524;28;20103;-73
2021/12/04 07:10:14;;;;;;;19.38;11.73;;;6.30;99.90;;;;;;5053372;28;20116;-73
2021/12/04 07:12:39;;;;;;;19.48;11.73;;;6.20;99.90;;;;;;5053109;28;20032;-83
2021/12/04 07:15:06;;;;;;;19.65;12.27;;;6.20;99.90;;;;;;5052802;28;20049;-76
2021/12/04 07:17:35;;;;;;;22.00;11.63;;;6.20;99.90;;;;;;5053613;28;20029;-76
2021/12/04 07:20:03;;;;;;;19.77;11.85;;;6.30;99.90;;;;;;5053444;28;20512;-76
2021/12/04 07:22:28;;;;;;;17.15;11.73;;;6.30;99.90;;;;;;5053344;28;20033;-76
2021/12/04 07:24:54;;;;;;;24.10;13.48;;;6.30;99.90;;;;;;5036772;28;20559;-76
2021/12/04 07:27:20;;;;;;;18.02;13.15;;;6.30;99.90;;;;;;5053419;28;20398;-75
2021/12/04 07:29:45;;;;;;;22.02;12.98;;;6.30;99.90;;;;;;5052471;28;20021;-76
2021/12/04 07:32:11;;;;;;;22.67;12.18;;;6.40;99.90;;;;;;5053526;28;20120;-76
2021/12/04 07:34:37;;;;;;;21.73;12.48;;;6.40;99.90;;;;;;5052805;28;20060;-76
2021/12/04 07:37:03;;;;;;;21.20;12.27;;;6.40;99.90;;;;;;5050271;28;20041;-77
2021/12/04 07:39:29;;;;;;;21.73;12.40;;;6.40;99.90;;;;;;5052869;28;20363;-76
2021/12/04 07:41:55;;;;;;;19.88;11.80;;;6.40;99.90;;;;;;5052901;28;20029;-76
2021/12/04 07:44:21;;;;;;;22.05;12.63;;;6.50;99.90;;;;;;5053174;28;20083;-77
2021/12/04 07:46:46;;;;;;;23.65;12.73;;;6.50;99.90;;;;;;5052859;28;20052;-76
2021/12/04 07:49:12;;;;;;;22.80;12.55;;;6.50;99.90;;;;;;5052476;28;20025;-76
2021/12/04 07:51:38;;;;;;;22.75;12.93;;;6.50;99.90;;;;;;5052658;28;20447;-76
2021/12/04 07:54:04;;;;;;;21.70;13.93;;;6.60;99.90;;;;;;5052762;28;20028;-76
2021/12/04 07:56:29;;;;;;;20.70;13.00;;;6.60;99.90;;;;;;5052894;28;20041;-76
2021/12/04 07:58:55;;;;;;;20.60;12.43;;;6.60;99.90;;;;;;5051838;28;20413;-76
2021/12/04 08:01:21;;;;;;;18.63;10.50;;;6.60;99.90;;;;;;5052257;28;20405;-76
2021/12/04 08:03:47;;;;;;;20.35;10.82;;;6.70;99.90;;;;;;5052054;28;20032;-76
2021/12/04 08:06:13;;;;;;;17.27;10.23;;;6.80;99.90;;;;;;5052264;28;20032;-76
2021/12/04 08:08:39;;;;;;;19.17;10.40;;;6.80;99.90;;;;;;5052301;28;20108;-76
2021/12/04 08:11:04;;;;;;;17.42;10.38;;;6.80;99.90;;;;;;5052726;28;20021;-76
2021/12/04 08:13:30;;;;;;;18.48;10.38;;;6.80;99.90;;;;;;5051190;28;20087;-76
2021/12/04 08:15:57;;;;;;;20.48;12.18;;;6.90;99.90;;;;;;5045057;28;20028;-76
2021/12/04 08:18:23;;;;;;;23.17;12.50;;;6.90;99.90;;;;;;5052163;28;20025;-76
2021/12/04 08:20:50;;;;;;;27.13;14.15;;;6.90;99.90;;;;;;5035045;28;20509;-76
2021/12/04 08:23:17;;;;;;;26.88;16.42;;;6.90;99.90;;;;;;5052474;28;20512;-76
2021/12/04 08:25:43;;;;;;;28.48;15.70;;;6.80;99.90;;;;;;5052057;28;20182;-76
2021/12/04 08:28:09;;;;;;;34.03;19.15;;;6.90;99.90;;;;;;5051444;28;20481;-77
2021/12/04 08:30:40;;;;;;;33.45;18.35;;;6.80;99.90;;;;;;5051774;28;20025;-76
2021/12/04 08:33:07;;;;;;;35.95;18.17;;;6.80;99.90;;;;;;5051684;28;20041;-75
2021/12/04 08:35:38;;;;;;;37.22;19.75;;;6.80;99.90;;;;;;5051760;28;20052;-77
2021/12/04 08:38:06;;;;;;;31.90;18.73;;;6.80;99.90;;;;;;5051528;28;20037;-77
2021/12/04 08:40:32;;;;;;;33.15;17.73;;;6.90;99.90;;;;;;5050935;28;20185;-76
2021/12/04 08:42:59;;;;;;;31.85;17.00;;;6.90;99.90;;;;;;5037239;28;20032;-75
2021/12/04 08:45:25;;;;;;;24.23;15.73;;;6.90;99.90;;;;;;5051512;28;20044;-75
2021/12/04 08:47:51;;;;;;;30.45;18.15;;;7.00;99.90;;;;;;5051284;28;20037;-75
2021/12/04 08:50:21;;;;;;;30.52;17.15;;;7.00;99.90;;;;;;5052046;28;20505;-75
2021/12/04 08:52:47;;;;;;;27.92;18.05;;;7.10;99.90;;;;;;5051121;28;20068;-74
2021/12/04 08:55:14;;;;;;;29.98;18.25;;;7.10;99.90;;;;;;5051171;28;20061;-74
2021/12/04 08:57:40;;;;;;;26.45;16.42;;;7.10;99.90;;;;;;5050906;28;20382;-74
2021/12/04 09:00:13;;;;;;;24.70;15.65;;;7.20;99.90;;;;;;5051357;28;20040;-74
2021/12/04 09:02:40;;;;;;;;;;;7.30;99.90;;;;;;5051998;28;20107;-75
2021/12/04 09:05:08;;;;;;;21.60;13.88;;;7.30;99.90;;;;;;5051726;28;20003;-74
2021/12/04 09:07:34;;;;;;;27.02;15.10;;;7.40;99.90;;;;;;5047130;28;20390;-74
2021/12/04 09:10:00;;;;;;;24.73;14.20;;;7.20;99.90;;;;;;5050998;28;20083;-74
2021/12/04 09:12:28;;;;;;;21.02;12.90;;;7.10;99.90;;;;;;5050357;28;20501;-79
2021/12/04 09:14:56;;;;;;;20.17;12.35;;;7.10;99.90;;;;;;5050992;28;20045;-80
2021/12/04 09:17:22;;;;;;;19.45;12.80;;;7.10;99.90;;;;;;5051501;28;20112;-82
2021/12/04 09:19:49;;;;;;;22.17;11.70;;;7.20;99.90;;;;;;5050985;28;20112;-83
2021/12/04 09:22:17;;;;;;;21.92;12.10;;;7.20;99.90;;;;;;5050897;28;20025;-83
2021/12/04 09:24:47;;;;;;;18.15;11.90;;;7.20;99.90;;;;;;5050448;28;20382;-84
2021/12/04 10:34:43;;;;;;;20.90;11.50;;;8.30;99.90;;;;;;4980309;28;20098;-75
2021/12/04 10:37:13;;;;;;;18.05;10.57;;;8.30;99.90;;;;;;4984726;28;20546;-75
2021/12/04 10:39:40;;;;;;;21.20;11.57;;;8.30;99.90;;;;;;5018292;28;20128;-76
2021/12/04 10:42:13;;;;;;;20.10;11.13;;;8.30;99.90;;;;;;5042048;28;20032;-75
2021/12/04 10:44:44;;;;;;;21.80;11.63;;;8.40;99.90;;;;;;5024845;28;20025;-75
2021/12/04 10:47:12;;;;;;;18.40;11.02;;;8.30;99.90;;;;;;5047969;28;20037;-75
2021/12/04 10:52:47;;;;;;;24.27;13.73;;;8.40;99.90;;;;;;5047872;28;20075;-74
2021/12/04 10:55:31;;;;;;;29.75;15.35;;;8.50;99.90;;;;;;5046926;28;20194;-72
2021/12/04 11:03:37;;;;;;;30.65;15.27;;;8.60;99.90;;;;;;5053009;28;20110;-72
2021/12/04 11:22:31;;;;;;;19.83;10.55;;;8.90;99.90;;;;;;5048019;28;20402;-75
2021/12/04 11:46:27;;;;;;;17.95;10.07;;;9.30;99.90;;;;;;5052457;28;20025;-77
2021/12/04 11:48:56;;;;;;;16.55;10.85;;;9.40;99.90;;;;;;5052438;28;20111;-77
2021/12/04 11:51:25;;;;;;;16.55;9.25;;;9.40;99.90;;;;;;5043940;28;20090;-77
2021/12/04 11:53:52;;;;;;;19.13;10.45;;;9.50;99.90;;;;;;5052424;28;20029;-76
2021/12/04 11:56:24;;;;;;;18.50;10.60;;;9.50;99.90;;;;;;5052710;28;20113;-77
2021/12/04 11:58:51;;;;;;;18.88;10.00;;;9.50;99.90;;;;;;5052447;28;20017;-76
2021/12/04 12:01:32;;;;;;;20.38;11.77;;;9.60;99.90;;;;;;5051937;28;20068;-76
2021/12/04 12:04:05;;;;;;;16.30;9.27;;;9.60;99.90;;;;;;5052231;28;20075;-76
2021/12/04 12:06:46;;;;;;;19.25;10.50;;;9.70;99.90;;;;;;5051949;28;20025;-78
2021/12/04 12:09:18;;;;;;;17.38;10.20;;;9.70;99.90;;;;;;5050435;28;20025;-77
2021/12/04 12:12:04;;;;;;;21.05;11.15;;;9.70;99.90;;;;;;5052094;28;20032;-76
2021/12/04 12:14:40;;;;;;;19.20;11.02;;;9.70;99.90;;;;;;5047772;28;20021;-77
2021/12/04 12:17:07;;;;;;;25.85;13.98;;;9.70;99.90;;;;;;5052594;28;20472;-74
2021/12/04 12:19:39;;;;;;;35.03;19.02;;;9.80;99.90;;;;;;5051437;28;20036;-77
2021/12/04 12:36:17;;;;;;;22.75;11.00;;;10.00;99.90;;;;;;5051605;28;20540;-78
2021/12/04 12:38:50;;;;;;;24.25;10.30;;;10.10;99.90;;;;;;5045981;28;20197;-78
2021/12/04 12:41:24;;;;;;;20.27;9.82;;;10.20;99.90;;;;;;5042278;28;20490;-78
2021/12/04 12:44:14;;;;;;;;;;;10.20;99.90;;;;;;5052005;28;20028;-78
2021/12/04 12:46:48;;;;;;;20.83;9.75;;;10.30;99.90;;;;;;5038806;28;19908;-77
2021/12/04 12:49:36;;;;;;;16.35;9.02;;;10.30;99.90;;;;;;5050604;28;20094;-76
2021/12/04 12:52:04;;;;;;;15.57;9.00;;;10.40;99.90;;;;;;5051676;28;20060;-75
2021/12/04 12:54:49;;;;;;;15.27;8.77;;;10.40;99.90;;;;;;5043202;28;20166;-77
2021/12/04 12:57:23;;;;;;;14.95;7.75;;;10.50;99.90;;;;;;5049362;28;20064;-77
2021/12/04 13:14:17;;;;;;;12.52;3.88;;;10.90;99.90;;;;;;5050399;28;20082;-76
2021/12/04 13:16:46;;;;;;;;;;;11.00;99.90;;;;;;5049544;28;20108;-73
2021/12/04 13:19:14;;;;;;;11.73;2.95;;;11.10;99.90;;;;;;5050560;28;19920;-73
2021/12/04 13:21:46;;;;;;;8.50;2.40;;;11.20;99.90;;;;;;5046513;28;20507;-73
2021/12/04 13:24:14;;;;;;;10.15;3.10;;;11.20;99.90;;;;;;5050435;28;20529;-73
2021/12/04 13:26:46;;;;;;;10.48;2.90;;;11.30;99.90;;;;;;5050394;28;20032;-73
2021/12/04 13:29:15;;;;;;;13.57;2.63;;;11.30;99.90;;;;;;5049165;28;20032;-73
2021/12/04 13:31:41;;;;;;;9.70;2.95;;;11.40;99.90;;;;;;5049784;28;20020;-73
2021/12/04 13:34:09;;;;;;;12.52;2.47;;;11.40;99.90;;;;;;5050523;28;20033;-73
2021/12/04 13:36:36;;;;;;;9.82;3.35;;;11.40;99.90;;;;;;5024515;28;20048;-73
2021/12/04 13:39:08;;;;;;;13.95;3.38;;;11.50;99.90;;;;;;5045852;28;20036;-71
2021/12/04 13:41:35;;;;;;;8.48;3.05;;;;;;;;;;5050407;28;20063;-80
2021/12/04 13:44:05;;;;;;;9.48;2.35;;;11.50;99.90;;;;;;5051054;28;20032;-77
2021/12/04 13:46:45;;;;;;;8.23;2.80;;;11.80;99.90;;;;;;5050282;28;20451;-77
2021/12/04 13:49:14;;;;;;;9.13;2.17;;;11.80;99.90;;;;;;5050121;28;20025;-78
2021/12/04 13:51:41;;;;;;;5.97;2.08;;;11.80;99.90;;;;;;5024092;28;20025;-77
2021/12/04 13:54:07;;;;;;;8.43;2.25;;;11.80;99.90;;;;;;5041640;28;20501;-77
2021/12/04 13:56:34;;;;;;;6.07;2.20;;;12.00;99.90;;;;;;5040053;28;20178;-78
2021/12/04 13:59:03;;;;;;;7.72;2.28;;;11.90;99.90;;;;;;5043799;28;20486;-77
2021/12/04 14:01:36;;;;;;;8.00;2.38;;;12.00;99.90;;;;;;5043387;28;20036;-77
2021/12/04 14:04:03;;;;;;;8.07;2.70;;;12.00;99.90;;;;;;5044076;28;20033;-78
2021/12/04 14:06:30;;;;;;;5.80;2.30;;;12.00;99.90;;;;;;5044251;28;20013;-78
2021/12/04 14:09:01;;;;;;;6.60;2.78;;;12.10;99.90;;;;;;5044998;28;20136;-78
2021/12/04 14:11:29;;;;;;;7.60;2.70;;;12.10;99.90;;;;;;5046727;28;20124;-77
2021/12/04 14:13:55;;;;;;;7.47;3.03;;;12.00;99.90;;;;;;5044749;28;20060;-77
2021/12/04 14:16:27;;;;;;;8.30;2.97;;;12.10;99.90;;;;;;5024625;28;20518;-77
2021/12/04 14:18:53;;;;;;;7.03;3.08;;;12.00;99.90;;;;;;5044183;28;20436;-77
2021/12/04 14:21:18;;;;;;;6.97;3.03;;;12.00;99.90;;;;;;5043794;28;20105;-78
2021/12/04 14:23:50;;;;;;;6.70;2.67;;;12.10;99.90;;;;;;5046734;28;20489;-77
2021/12/04 14:26:16;;;;;;;5.93;2.55;;;12.00;99.90;;;;;;5043328;28;20033;-77
2021/12/04 14:28:44;;;;;;;6.38;2.55;;;12.10;99.90;;;;;;5038468;28;20036;-78
2021/12/04 14:31:12;;;;;;;5.72;2.40;;;12.10;99.90;;;;;;5043111;28;20490;-78
2021/12/04 14:33:40;;;;;;;8.45;3.42;;;12.20;99.90;;;;;;5042508;28;20120;-78
2021/12/04 14:36:06;;;;;;;4.32;2.00;;;12.20;99.90;;;;;;5035720;28;20049;-78
2021/12/04 14:38:33;;;;;;;4.55;1.90;;;12.20;99.90;;;;;;5038039;28;20509;-78
2021/12/04 14:41:01;;;;;;;5.35;1.92;;;12.20;99.90;;;;;;5042210;28;20025;-78
2021/12/04 14:43:32;;;;;;;5.65;2.22;;;12.20;99.90;;;;;;5042920;28;20037;-78
2021/12/04 14:45:59;;;;;;;6.05;2.58;;;12.30;99.90;;;;;;5039618;28;20555;-78
2021/12/04 14:48:34;;;;;;;8.27;3.45;;;12.30;99.90;;;;;;5039203;28;20104;-78
2021/12/04 14:51:09;;;;;;;13.48;6.32;;;12.30;99.90;;;;;;5040242;28;20104;-78
2021/12/04 14:53:38;;;;;;;14.85;6.80;;;12.30;99.90;;;;;;5041657;28;20056;-77
2021/12/04 14:56:07;;;;;;;11.32;5.45;;;12.30;99.90;;;;;;5039007;28;20518;-77
2021/12/04 14:58:33;;;;;;;20.70;8.10;;;12.30;99.90;;;;;;5041909;28;20040;-78
2021/12/04 15:01:03;;;;;;;10.85;4.45;;;12.30;99.90;;;;;;5041407;28;20025;-77
2021/12/04 15:03:40;;;;;;;15.13;6.63;;;12.40;99.90;;;;;;5048837;28;20055;-77
2021/12/04 15:06:10;;;;;;;11.80;4.82;;;12.30;99.90;;;;;;5044501;28;20511;-77
2021/12/04 15:08:39;;;;;;;14.75;4.90;;;12.40;99.90;;;;;;5043382;28;20108;-78
2021/12/04 15:11:08;;;;;;;53.55;19.73;;;12.40;99.90;;;;;;5052194;28;20036;-77
2021/12/04 15:13:41;;;;;;;23.50;8.07;;;12.40;99.90;;;;;;5051600;28;20025;-77
2021/12/04 15:16:13;;;;;;;19.52;8.43;;;12.40;99.90;;;;;;5053466;28;20041;-77
2021/12/04 15:18:39;;;;;;;11.35;5.05;;;12.40;99.90;;;;;;5053408;28;20385;-77
2021/12/04 15:21:10;;;;;;;9.68;3.45;;;12.40;99.90;;;;;;5053164;28;20040;-77
2021/12/04 15:23:37;;;;;;;11.98;5.22;;;12.40;99.90;;;;;;5053221;28;20025;-78
2021/12/04 15:26:12;;;;;;;7.32;3.30;;;12.40;99.90;;;;;;5053503;28;20118;-79
2021/12/04 15:28:52;;;;;;;24.02;10.52;;;12.40;99.90;;;;;;5052398;28;20055;-77
2021/12/04 15:31:22;;;;;;;14.32;6.22;;;12.40;99.90;;;;;;5035195;28;20048;-77
2021/12/04 15:33:51;;;;;;;18.30;7.70;;;12.30;99.90;;;;;;5052943;28;20167;-77
2021/12/04 15:36:34;;;;;;;9.95;3.20;;;12.30;99.90;;;;;;5052870;28;20045;-77
2021/12/04 15:39:06;;;;;;;5.47;2.85;;;12.20;99.90;;;;;;5052702;28;20624;-77
2021/12/04 15:41:54;;;;;;;7.45;2.80;;;12.20;99.90;;;;;;5050432;28;20065;-77
2021/12/04 15:47:03;;;;;;;7.70;3.00;;;12.00;99.90;;;;;;5052952;28;20397;-77
2021/12/04 15:54:46;;;;;;;10.93;4.93;;;12.00;99.90;;;;;;5052300;28;20027;-77
2021/12/04 15:57:14;;;;;;;12.02;5.57;;;11.90;99.90;;;;;;5052294;28;20029;-77
2021/12/04 15:59:45;;;;;;;12.70;5.70;;;;;;;;;;5052123;28;20025;-77
2021/12/04 16:02:12;;;;;;;13.15;5.10;;;;;;;;;;5053139;28;20367;-77
2021/12/04 16:04:39;;;;;;;12.10;4.65;;;;;;;;;;5052198;28;20112;-77
2021/12/04 16:07:05;;;;;;;13.30;5.60;;;11.80;99.90;;;;;;5052333;28;20037;-77
2021/12/04 16:09:36;;;;;;;11.63;5.07;;;;;;;;;;5051899;28;20477;-77
2021/12/04 16:12:02;;;;;;;12.07;5.55;;;;;;;;;;5044621;28;20025;-74
2021/12/04 16:14:32;;;;;;;12.55;5.57;;;;;;;;;;5052488;28;20085;-77
2021/12/04 16:16:58;;;;;;;12.75;5.57;;;;;;;;;;5051974;28;20044;-75
2021/12/04 16:19:24;;;;;;;12.52;5.50;;;;;;;;;;5052408;28;20049;-76
2021/12/04 16:21:53;;;;;;;12.70;5.20;;;;;;;;;;5051960;28;20119;-76